CheckWX is a tool to help pilots better visualize weather data.  It is not intended as a substitute for an official pre-flight weather briefing.

16:07:59 UTC

KVQQ METAR
Cecil Airport
Jacksonville, Florida, USA
Current

18 mins ago

KVQQ 181550Z 03006KT 10SM CLR 21/13 A2998
Observed
Oct-18 @ 15:50 UTC
Wind
  • 030° at 6 KTS
Visibility
10 SM
Flight Rules
VFR
Cloud Levels
  • Clear skies
Temperature
21°C / 70°F
Dewpoint
13°C / 55°F
Humidity
60%
Altimeter
29.98" Hg
Pressure
1015.22 hPa
Previous

1 hour ago

KVQQ 181450Z 00000KT 10SM CLR 19/12 A3000
Observed
Oct-18 @ 14:50 UTC
Visibility
10 SM
Flight Rules
VFR
Cloud Levels
  • Clear skies
Temperature
19°C / 66°F
Dewpoint
12°C / 54°F
Humidity
64%
Altimeter
30" Hg
Pressure
1015.92 hPa
Previous

2 hours ago

KVQQ 181350Z 00000KT 10SM OVC120 17/13 A3000
Observed
Oct-18 @ 13:50 UTC
Visibility
10 SM
Flight Rules
VFR
Cloud Levels
  • Overcast at 12,000' AGL
Temperature
17°C / 63°F
Dewpoint
13°C / 55°F
Humidity
77%
Altimeter
30" Hg
Pressure
1015.92 hPa